Aeroporto :
LOGIN :

Iscrizione | Disclaimer

   EN    FR    IT 

 










Sommario :    VFR   VFR Marginale   IFR   IFR Intensivo   IFR Molto Intensivo
Visibilità : 
Base nubi : 
>= 8 km
>= 3000ft
5 / 8 km
1000 / 3000 ft
1500m / 5 km
500 / 1000 ft
800 / 1500m
200 / 500 ft
< 800m
< 200 ft
Simboli :   Temporali  Nebbia  Neve Forte  Precipitazioni Forti  Vento > 20 kt
SIGMETs :   Varie  Temporali  Ghiacco  Turbolenza  Onda orograficha  Ceneri Vulcaniche






- Altitudine del aeroporto : 0 ft


ENQA - Troll A Platform

ULTIMO METAR :
  • 131750Z AUTO 17020KT 7000NDV RA OVC017/// 06/04 Q0996 W07/S4

METARs OBSOLETI :
  • 131720Z AUTO 18025KT 6000NDV RA OVC015/// 05/03 Q0996 W07/S4
  • 131650Z AUTO 16022KT 8000NDV -SHRA OVC017/// 06/03 Q0996 W06/S4
  • 131620Z AUTO 17020KT 2600NDV -SHRASN OVC013/// 06/04 Q0995 RESHRA W06/S4
  • 131550Z AUTO 17018KT 9999NDV -RA BKN012/// 06/04 Q0995 W07/S4
  • 131520Z AUTO 16011KT 9999NDV BKN016/// BKN100/// 07/04 Q0995 W07/S4

TAF N/A



MetMap, La meteo Aeronautica in un colpo d'occhio ! - Copyright ORBIFLY Dicembre 2007 - Disclaimer

ORBIFLY MET'MAP TEAM :

Programmazione e sviluppo : Alexandra Zaïnal
Concezione e sviluppo : Baudouin d'Aumeries
Co-Programmazione e sviluppo : Marc-Olivier Méhu
Supporto tecnico e logistico : Manuel Goepfert
Aiuto per la traduzione : Arnaldo La Scala

Contatto : metmap@orbifly.com




FONTI E CREDITI :

   NOAA